createdAt,value
2023-05-13T00:00:03.107Z,12.91
2023-05-13T00:01:03.126Z,12.94
2023-05-13T00:02:03.106Z,12.95
2023-05-13T00:03:03.140Z,13.00
2023-05-13T00:04:03.056Z,13.03
2023-05-13T00:05:03.049Z,13.01
2023-05-13T00:06:03.053Z,13.05
2023-05-13T00:07:03.031Z,13.05
2023-05-13T00:08:03.009Z,13.09
2023-05-13T00:09:02.992Z,13.09
2023-05-13T00:10:02.980Z,13.11
2023-05-13T00:11:02.980Z,13.09
2023-05-13T00:12:02.970Z,13.11
2023-05-13T00:13:02.950Z,13.15
2023-05-13T00:14:02.942Z,13.12
2023-05-13T00:15:02.922Z,13.16
2023-05-13T00:16:02.950Z,13.18
2023-05-13T00:17:02.922Z,13.20
2023-05-13T00:18:02.980Z,13.28
2023-05-13T00:19:02.981Z,13.27
2023-05-13T00:20:02.856Z,13.35
2023-05-13T00:21:02.859Z,13.37
2023-05-13T00:22:02.820Z,13.38
2023-05-13T00:23:02.815Z,13.37
2023-05-13T00:24:02.809Z,13.39
2023-05-13T00:25:02.795Z,13.42
2023-05-13T00:26:02.788Z,13.42
2023-05-13T00:27:02.772Z,13.46
2023-05-13T00:28:02.762Z,13.46
2023-05-13T00:29:02.740Z,13.49
2023-05-13T00:30:02.738Z,13.42
2023-05-13T00:31:02.704Z,13.42
2023-05-13T00:32:02.753Z,13.38
2023-05-13T00:33:02.739Z,13.41
2023-05-13T00:34:02.668Z,13.39
2023-05-13T00:35:02.665Z,13.28
2023-05-13T00:36:02.650Z,13.27
2023-05-13T00:37:02.632Z,13.31
2023-05-13T00:38:02.625Z,13.31
2023-05-13T00:39:02.608Z,13.33
2023-05-13T00:40:02.619Z,13.31
2023-05-13T00:41:02.584Z,13.33
2023-05-13T00:42:02.572Z,13.31
2023-05-13T00:43:02.552Z,13.33
2023-05-13T00:44:02.552Z,13.37
2023-05-13T00:45:02.541Z,13.37
2023-05-13T00:46:02.584Z,13.38
2023-05-13T00:47:02.504Z,13.33
2023-05-13T00:48:02.526Z,13.31
2023-05-13T00:49:02.504Z,13.35
2023-05-13T00:50:02.461Z,13.31
2023-05-13T00:51:02.461Z,13.35
2023-05-13T00:52:02.435Z,13.30
2023-05-13T00:53:02.423Z,13.30
2023-05-13T00:54:02.426Z,13.28
2023-05-13T00:55:02.410Z,13.23
2023-05-13T00:56:02.386Z,13.23
2023-05-13T00:57:02.395Z,13.15
2023-05-13T00:58:02.373Z,13.16
2023-05-13T00:59:02.356Z,13.13
2023-05-13T01:00:02.362Z,13.12
2023-05-13T01:01:02.426Z,13.12
2023-05-13T01:02:02.382Z,13.11
2023-05-13T01:03:02.407Z,13.08
2023-05-13T01:04:02.291Z,13.08
2023-05-13T01:05:02.300Z,13.08
2023-05-13T01:06:02.268Z,13.08
2023-05-13T01:07:02.249Z,13.04
2023-05-13T01:08:02.238Z,13.05
2023-05-13T01:09:02.214Z,13.03
2023-05-13T01:10:02.220Z,13.03
2023-05-13T01:11:02.182Z,13.00
2023-05-13T01:12:02.181Z,12.94
2023-05-13T01:13:02.177Z,12.91
2023-05-13T01:14:02.143Z,12.90
2023-05-13T01:15:02.130Z,12.90
2023-05-13T01:16:02.114Z,12.90
2023-05-13T01:17:02.267Z,12.90
2023-05-13T01:18:02.139Z,12.93
2023-05-13T01:19:02.146Z,12.94
2023-05-13T01:20:02.079Z,12.94
2023-05-13T01:21:02.101Z,12.90
2023-05-13T01:22:02.062Z,12.94
2023-05-13T01:23:02.027Z,12.95
2023-05-13T01:24:02.044Z,12.95
2023-05-13T01:25:02.021Z,12.97
2023-05-13T01:26:01.989Z,12.95
2023-05-13T01:27:01.988Z,12.98
2023-05-13T01:28:01.969Z,12.95
2023-05-13T01:29:01.952Z,12.98
2023-05-13T01:30:01.930Z,12.98
2023-05-13T01:31:01.984Z,12.95
2023-05-13T01:32:01.920Z,12.94
2023-05-13T01:33:01.922Z,12.95
2023-05-13T01:34:01.882Z,13.01
2023-05-13T01:35:01.871Z,13.01
2023-05-13T01:36:01.873Z,12.98
2023-05-13T01:37:01.873Z,12.98
2023-05-13T01:38:01.839Z,13.00
2023-05-13T01:39:01.821Z,13.01
2023-05-13T01:40:03.020Z,13.00
2023-05-13T01:41:01.802Z,12.98
2023-05-13T01:42:01.776Z,12.98
2023-05-13T01:43:01.762Z,13.01
2023-05-13T01:44:01.749Z,13.01
2023-05-13T01:45:01.754Z,12.98
2023-05-13T01:46:01.805Z,12.98
2023-05-13T01:47:01.711Z,12.98
2023-05-13T01:48:01.767Z,13.00
2023-05-13T01:49:01.690Z,12.98
2023-05-13T01:50:01.707Z,12.95
2023-05-13T01:51:01.673Z,12.94
2023-05-13T01:52:01.649Z,12.93
2023-05-13T01:53:01.680Z,12.91
2023-05-13T01:54:01.622Z,12.90
2023-05-13T01:55:01.632Z,12.85
2023-05-13T01:56:01.590Z,12.79
2023-05-13T01:57:01.597Z,12.79
2023-05-13T01:58:01.563Z,12.79
2023-05-13T01:59:01.553Z,12.73
2023-05-13T02:00:01.553Z,12.79
2023-05-13T02:01:01.532Z,12.73
2023-05-13T02:02:01.594Z,12.68
2023-05-13T02:03:01.628Z,12.65
2023-05-13T02:04:01.574Z,12.61
2023-05-13T02:05:01.485Z,12.57
2023-05-13T02:06:01.456Z,12.58
2023-05-13T02:07:01.468Z,12.53
2023-05-13T02:08:01.437Z,12.50
2023-05-13T02:09:01.455Z,12.45
2023-05-13T02:10:01.407Z,12.43
2023-05-13T02:11:01.397Z,12.40
2023-05-13T02:12:01.376Z,12.42
2023-05-13T02:13:01.383Z,12.45
2023-05-13T02:14:01.363Z,12.43
2023-05-13T02:15:01.340Z,12.36
2023-05-13T02:16:01.350Z,12.32
2023-05-13T02:17:01.310Z,12.29
2023-05-13T02:18:01.430Z,12.24
2023-05-13T02:19:01.334Z,12.09
2023-05-13T02:20:01.270Z,11.99
2023-05-13T02:21:01.257Z,11.90
2023-05-13T02:22:01.242Z,11.84
2023-05-13T02:23:01.245Z,11.77
2023-05-13T02:24:01.216Z,11.73
2023-05-13T02:25:01.229Z,11.73
2023-05-13T02:26:01.193Z,11.55
2023-05-13T02:27:01.233Z,11.51
2023-05-13T02:28:01.180Z,11.47
2023-05-13T02:29:01.154Z,11.48
2023-05-13T02:30:01.140Z,11.45
2023-05-13T02:31:01.151Z,11.41
2023-05-13T02:32:01.205Z,11.41
2023-05-13T02:33:01.182Z,11.32
2023-05-13T02:34:01.090Z,11.35
2023-05-13T02:35:01.069Z,11.29
2023-05-13T02:36:01.068Z,11.30
2023-05-13T02:37:01.060Z,11.26
2023-05-13T02:38:01.033Z,11.27
2023-05-13T02:39:01.024Z,11.30
2023-05-13T02:40:01.009Z,11.32
2023-05-13T02:41:01.038Z,11.35
2023-05-13T02:42:01.002Z,11.30
2023-05-13T02:43:00.971Z,11.30
2023-05-13T02:44:00.966Z,11.29
2023-05-13T02:45:00.940Z,11.26
2023-05-13T02:46:00.946Z,11.22
2023-05-13T02:47:00.955Z,11.17
2023-05-13T02:48:00.932Z,11.10
2023-05-13T02:49:00.891Z,11.08
2023-05-13T02:50:00.875Z,11.04
2023-05-13T02:51:00.876Z,11.04
2023-05-13T02:52:00.861Z,11.00
2023-05-13T02:53:00.842Z,10.96
2023-05-13T02:54:00.824Z,10.99
2023-05-13T02:55:00.865Z,11.04
2023-05-13T02:56:00.814Z,11.02
2023-05-13T02:57:00.811Z,11.05
2023-05-13T02:58:00.768Z,11.08
2023-05-13T02:59:00.759Z,11.08
2023-05-13T03:00:00.748Z,11.12
2023-05-13T03:01:00.792Z,11.12
2023-05-13T03:02:00.719Z,11.14
2023-05-13T03:03:00.880Z,11.12
2023-05-13T03:04:00.689Z,11.18
2023-05-13T03:05:00.714Z,11.22
2023-05-13T03:06:00.674Z,11.19
2023-05-13T03:07:00.652Z,11.26
2023-05-13T03:08:00.635Z,11.30
2023-05-13T03:09:00.631Z,11.32
2023-05-13T03:10:00.633Z,11.33
2023-05-13T03:11:00.603Z,11.36
2023-05-13T03:12:00.591Z,11.37
2023-05-13T03:13:00.595Z,11.36
2023-05-13T03:14:00.561Z,11.41
2023-05-13T03:15:00.574Z,11.43
2023-05-13T03:16:00.563Z,11.44
2023-05-13T03:17:00.526Z,11.45
2023-05-13T03:18:00.552Z,11.45
2023-05-13T03:19:00.561Z,11.50
2023-05-13T03:20:00.531Z,11.48
2023-05-13T03:21:00.471Z,11.51
2023-05-13T03:22:00.459Z,11.51
2023-05-13T03:23:00.443Z,11.51
2023-05-13T03:24:00.439Z,11.52
2023-05-13T03:25:00.412Z,11.47
2023-05-13T03:26:00.403Z,11.50
2023-05-13T03:27:00.408Z,11.54
2023-05-13T03:28:00.374Z,11.51
2023-05-13T03:29:00.395Z,11.48
2023-05-13T03:30:00.368Z,11.50
2023-05-13T03:31:00.401Z,11.50
2023-05-13T03:32:00.319Z,11.51
2023-05-13T03:33:00.408Z,11.52
2023-05-13T03:34:00.304Z,11.52
2023-05-13T03:35:00.282Z,11.52
2023-05-13T03:36:00.274Z,11.55
2023-05-13T03:37:00.254Z,11.55
2023-05-13T03:38:00.248Z,11.55
2023-05-13T03:39:00.229Z,11.48
2023-05-13T03:40:00.220Z,11.50
2023-05-13T03:41:00.208Z,11.51
2023-05-13T03:42:00.184Z,11.52
2023-05-13T03:43:00.185Z,11.50
2023-05-13T03:44:00.155Z,11.52
2023-05-13T03:45:00.164Z,11.50
2023-05-13T03:46:00.137Z,11.54
2023-05-13T03:47:00.203Z,11.54
2023-05-13T03:48:00.204Z,11.50
2023-05-13T03:49:00.135Z,11.54
2023-05-13T03:50:00.105Z,11.51
2023-05-13T03:51:00.071Z,11.48
2023-05-13T03:52:00.096Z,11.48
2023-05-13T03:53:00.040Z,11.48
2023-05-13T03:54:00.052Z,11.51
2023-05-13T03:55:00.017Z,11.50
2023-05-13T03:55:59.998Z,11.50
2023-05-13T03:57:00.004Z,11.52
2023-05-13T03:57:59.971Z,11.52
2023-05-13T03:58:59.968Z,11.54
2023-05-13T03:59:59.947Z,11.59
2023-05-13T04:00:59.977Z,11.55
2023-05-13T04:02:00.006Z,11.55
2023-05-13T04:02:59.963Z,11.55
2023-05-13T04:03:59.897Z,11.60
2023-05-13T04:04:59.959Z,11.62
2023-05-13T04:05:59.889Z,11.63
2023-05-13T04:06:59.862Z,11.66
2023-05-13T04:07:59.847Z,11.66
2023-05-13T04:08:59.834Z,11.68
2023-05-13T04:09:59.817Z,11.73
2023-05-13T04:10:59.817Z,11.73
2023-05-13T04:11:59.797Z,11.75
2023-05-13T04:12:59.780Z,11.81
2023-05-13T04:13:59.766Z,11.83
2023-05-13T04:14:59.767Z,11.87
2023-05-13T04:15:59.754Z,11.86
2023-05-13T04:16:59.767Z,11.94
2023-05-13T04:17:59.743Z,11.99
2023-05-13T04:18:59.780Z,12.03
2023-05-13T04:19:59.704Z,12.07
2023-05-13T04:20:59.675Z,12.13
2023-05-13T04:21:59.704Z,12.13
2023-05-13T04:22:59.645Z,12.15
2023-05-13T04:23:59.659Z,12.18
2023-05-13T04:24:59.632Z,12.22
2023-05-13T04:25:59.607Z,12.29
2023-05-13T04:27:01.327Z,12.32
2023-05-13T04:27:59.584Z,12.39
2023-05-13T04:28:59.586Z,12.40
2023-05-13T04:29:59.568Z,12.45
2023-05-13T04:30:59.553Z,12.47
2023-05-13T04:31:59.582Z,12.54
2023-05-13T04:32:59.571Z,12.57
2023-05-13T04:33:59.520Z,12.62
2023-05-13T04:34:59.485Z,12.62
2023-05-13T04:35:59.468Z,12.67
2023-05-13T04:36:59.454Z,12.64
2023-05-13T04:37:59.442Z,12.72
2023-05-13T04:38:59.441Z,12.78
2023-05-13T04:39:59.467Z,12.75
2023-05-13T04:40:59.400Z,12.78
2023-05-13T04:41:59.388Z,12.73
2023-05-13T04:42:59.399Z,12.68
2023-05-13T04:43:59.386Z,12.64
2023-05-13T04:44:59.353Z,12.57
2023-05-13T04:45:59.380Z,12.43
2023-05-13T04:46:59.408Z,12.31
2023-05-13T04:47:59.339Z,12.28
2023-05-13T04:48:59.313Z,12.13
2023-05-13T04:49:59.315Z,12.06
2023-05-13T04:50:59.303Z,11.97
2023-05-13T04:51:59.273Z,11.94
2023-05-13T04:52:59.267Z,11.91
2023-05-13T04:53:59.232Z,12.00
2023-05-13T04:54:59.222Z,11.99
2023-05-13T04:55:59.201Z,12.02
2023-05-13T04:56:59.205Z,12.03
2023-05-13T04:57:59.178Z,12.07
2023-05-13T04:59:06.105Z,12.06
2023-05-13T04:59:59.150Z,12.02
2023-05-13T05:00:59.145Z,12.02
2023-05-13T05:01:59.232Z,12.02
2023-05-13T05:02:59.185Z,12.15
2023-05-13T05:03:59.133Z,12.22
2023-05-13T05:04:59.109Z,12.20
2023-05-13T05:05:59.087Z,12.25
2023-05-13T05:06:59.080Z,12.28
2023-05-13T05:07:59.080Z,12.28
2023-05-13T05:08:59.075Z,12.47
2023-05-13T05:09:59.018Z,12.67
2023-05-13T05:10:59.018Z,12.82
2023-05-13T05:11:58.992Z,12.85
2023-05-13T05:12:58.977Z,12.83
2023-05-13T05:13:58.964Z,12.79
2023-05-13T05:14:58.951Z,12.76
2023-05-13T05:15:58.961Z,12.78
2023-05-13T05:16:58.971Z,12.78
2023-05-13T05:17:58.946Z,12.85
2023-05-13T05:18:58.930Z,13.09
2023-05-13T05:19:58.910Z,13.25
2023-05-13T05:21:00.508Z,13.37
2023-05-13T05:21:58.894Z,13.25
2023-05-13T05:22:58.844Z,13.42
2023-05-13T05:23:58.833Z,13.53
2023-05-13T05:24:58.839Z,13.79
2023-05-13T05:26:10.498Z,13.96
2023-05-13T05:26:58.830Z,14.04
2023-05-13T05:27:58.787Z,14.15
2023-05-13T05:28:58.767Z,14.26
2023-05-13T05:29:58.771Z,14.51
2023-05-13T05:30:58.741Z,14.63
2023-05-13T05:31:58.776Z,14.81
2023-05-13T05:32:58.775Z,15.00
2023-05-13T05:33:58.707Z,15.07
2023-05-13T05:34:58.710Z,15.59
2023-05-13T05:35:58.702Z,15.58
2023-05-13T05:36:58.769Z,15.70
2023-05-13T05:37:58.709Z,15.67
2023-05-13T05:38:58.675Z,15.73
2023-05-13T05:39:58.636Z,15.80
2023-05-13T05:40:58.641Z,15.72
2023-05-13T05:41:58.592Z,15.90
2023-05-13T05:42:58.578Z,16.65
2023-05-13T05:43:58.579Z,17.14
2023-05-13T05:44:58.552Z,16.84
2023-05-13T05:45:58.629Z,16.83
2023-05-13T05:46:58.531Z,17.15
2023-05-13T05:47:58.538Z,17.39
2023-05-13T05:48:58.511Z,17.15
2023-05-13T05:49:58.487Z,16.96
2023-05-13T05:50:58.475Z,17.31
2023-05-13T05:51:58.457Z,17.44
2023-05-13T05:52:58.538Z,17.20
2023-05-13T05:53:58.470Z,17.36
2023-05-13T05:54:58.420Z,17.52
2023-05-13T05:55:58.409Z,17.31
2023-05-13T05:56:58.397Z,17.26
2023-05-13T05:57:58.399Z,17.38
2023-05-13T05:58:58.395Z,17.67
2023-05-13T05:59:58.359Z,18.16
2023-05-13T06:00:58.375Z,18.23
2023-05-13T06:01:58.347Z,18.41
2023-05-13T06:02:58.446Z,18.31
2023-05-13T06:03:58.475Z,18.11
2023-05-13T06:04:58.287Z,17.97
2023-05-13T06:05:58.445Z,17.82
2023-05-13T06:06:58.337Z,17.85
2023-05-13T06:07:58.265Z,17.74
2023-05-13T06:08:58.312Z,17.64
2023-05-13T06:09:58.221Z,17.71
2023-05-13T06:10:58.223Z,17.70
2023-05-13T06:11:58.210Z,17.52
2023-05-13T06:12:58.189Z,17.48
2023-05-13T06:13:58.174Z,17.36
2023-05-13T06:14:58.158Z,17.24
2023-05-13T06:15:58.220Z,17.33
2023-05-13T06:16:58.135Z,17.48
2023-05-13T06:17:58.155Z,17.26
2023-05-13T06:18:58.139Z,17.97
2023-05-13T06:19:58.086Z,18.95
2023-05-13T06:20:58.088Z,18.88
2023-05-13T06:21:58.076Z,18.70
2023-05-13T06:22:58.046Z,18.55
2023-05-13T06:23:58.041Z,18.50
2023-05-13T06:24:58.063Z,18.62
2023-05-13T06:25:58.024Z,18.62
2023-05-13T06:26:58.014Z,18.50
2023-05-13T06:27:57.990Z,18.45
2023-05-13T06:28:57.968Z,18.26
2023-05-13T06:29:57.952Z,18.16
2023-05-13T06:30:58.010Z,18.13
2023-05-13T06:31:57.934Z,18.10
2023-05-13T06:33:02.074Z,18.07
2023-05-13T06:33:57.906Z,17.95
2023-05-13T06:34:57.897Z,17.98
2023-05-13T06:35:57.921Z,18.00
2023-05-13T06:36:57.864Z,17.83
2023-05-13T06:37:57.853Z,17.87
2023-05-13T06:38:57.841Z,18.05
2023-05-13T06:39:57.841Z,18.16
2023-05-13T06:40:57.849Z,18.41
2023-05-13T06:41:57.801Z,18.23
2023-05-13T06:42:57.779Z,17.19
2023-05-13T06:43:57.781Z,17.22
2023-05-13T06:44:57.780Z,17.52
2023-05-13T06:45:57.799Z,17.20
2023-05-13T06:46:57.736Z,17.51
2023-05-13T06:47:58.495Z,17.59
2023-05-13T06:48:57.714Z,16.94
2023-05-13T06:49:57.715Z,17.09
2023-05-13T06:50:57.676Z,17.52
2023-05-13T06:51:57.668Z,18.01
2023-05-13T06:52:57.648Z,18.55
2023-05-13T06:53:57.651Z,19.33
2023-05-13T06:54:57.668Z,20.55
2023-05-13T06:55:57.609Z,21.17
2023-05-13T06:56:57.619Z,22.17
2023-05-13T06:57:57.586Z,22.85
2023-05-13T06:58:57.590Z,22.60
2023-05-13T06:59:57.557Z,22.15
2023-05-13T07:00:57.609Z,21.88
2023-05-13T07:01:57.532Z,21.91
2023-05-13T07:02:57.540Z,22.59
2023-05-13T07:03:57.600Z,22.08
2023-05-13T07:04:57.488Z,21.55
2023-05-13T07:05:57.475Z,21.22
2023-05-13T07:06:57.513Z,20.87
2023-05-13T07:07:57.473Z,20.75
2023-05-13T07:08:57.454Z,20.74
2023-05-13T07:09:57.426Z,21.00
2023-05-13T07:10:57.402Z,21.24
2023-05-13T07:11:57.412Z,21.35
2023-05-13T07:12:57.420Z,21.33
2023-05-13T07:13:57.371Z,21.20
2023-05-13T07:14:57.350Z,21.11
2023-05-13T07:15:57.340Z,20.85
2023-05-13T07:16:57.369Z,20.43
2023-05-13T07:17:57.368Z,20.37
2023-05-13T07:18:57.344Z,20.19
2023-05-13T07:19:57.293Z,20.06
2023-05-13T07:20:57.275Z,19.89
2023-05-13T07:21:57.270Z,20.06
2023-05-13T07:22:57.263Z,19.99
2023-05-13T07:23:57.232Z,19.92
2023-05-13T07:24:57.222Z,19.95
2023-05-13T07:25:57.221Z,19.99
2023-05-13T07:26:57.216Z,20.03
2023-05-13T07:27:57.181Z,20.18
2023-05-13T07:28:57.214Z,20.31
2023-05-13T07:29:57.150Z,20.48
2023-05-13T07:30:57.150Z,20.50
2023-05-13T07:31:57.138Z,20.63
2023-05-13T07:32:57.246Z,20.67
2023-05-13T07:33:57.098Z,21.17
2023-05-13T07:34:57.078Z,21.21
2023-05-13T07:35:57.124Z,20.70
2023-05-13T07:36:57.069Z,20.34
2023-05-13T07:37:57.050Z,20.28
2023-05-13T07:38:57.028Z,20.80
2023-05-13T07:39:57.014Z,21.14
2023-05-13T07:40:57.016Z,20.99
2023-05-13T07:41:57.006Z,21.12
2023-05-13T07:42:56.977Z,21.35
2023-05-13T07:43:56.963Z,21.79
2023-05-13T07:44:56.997Z,22.02
2023-05-13T07:45:56.956Z,22.25
2023-05-13T07:46:56.952Z,22.57
2023-05-13T07:47:56.971Z,22.80
2023-05-13T07:48:56.902Z,22.26
2023-05-13T07:49:56.886Z,22.28
2023-05-13T07:50:56.965Z,22.90
2023-05-13T07:51:56.871Z,23.36
2023-05-13T07:52:56.855Z,23.13
2023-05-13T07:53:56.841Z,22.98
2023-05-13T07:54:56.839Z,23.05
2023-05-13T07:55:56.825Z,23.00
2023-05-13T07:56:56.797Z,23.23
2023-05-13T07:57:56.780Z,23.66
2023-05-13T07:58:56.763Z,23.83
2023-05-13T07:59:56.816Z,23.66
2023-05-13T08:00:56.786Z,23.68
2023-05-13T08:01:56.732Z,23.21
2023-05-13T08:02:56.766Z,23.21
2023-05-13T08:03:57.030Z,23.84
2023-05-13T08:04:56.768Z,24.02
2023-05-13T08:05:56.670Z,24.38
2023-05-13T08:06:56.679Z,23.66
2023-05-13T08:07:56.651Z,22.66
2023-05-13T08:08:56.630Z,22.90
2023-05-13T08:09:56.664Z,23.24
2023-05-13T08:10:56.611Z,23.48
2023-05-13T08:11:56.592Z,23.92
2023-05-13T08:12:56.580Z,24.17
2023-05-13T08:13:56.581Z,24.06
2023-05-13T08:14:56.567Z,24.13
2023-05-13T08:15:56.637Z,24.29
2023-05-13T08:16:56.649Z,23.00
2023-05-13T08:17:56.588Z,22.84
2023-05-13T08:18:56.561Z,23.09
2023-05-13T08:19:56.672Z,23.12
2023-05-13T08:20:56.476Z,23.98
2023-05-13T08:21:56.462Z,24.96
2023-05-13T08:22:56.456Z,25.83
2023-05-13T08:23:56.449Z,26.59
2023-05-13T08:24:56.425Z,26.88
2023-05-13T08:25:56.410Z,27.26
2023-05-13T08:26:56.392Z,27.17
2023-05-13T08:27:56.404Z,27.78
2023-05-13T08:28:56.369Z,28.35
2023-05-13T08:29:56.370Z,28.41
2023-05-13T08:30:56.340Z,28.45
2023-05-13T08:31:56.420Z,28.54
2023-05-13T08:32:56.399Z,28.78
2023-05-13T08:33:56.307Z,29.05
2023-05-13T08:34:56.296Z,28.86
2023-05-13T08:35:56.278Z,28.39
2023-05-13T08:36:56.275Z,27.52
2023-05-13T08:37:56.270Z,27.67
2023-05-13T08:38:56.240Z,27.98
2023-05-13T08:39:56.227Z,26.68
2023-05-13T08:40:56.272Z,27.27
2023-05-13T08:41:56.223Z,27.87
2023-05-13T08:42:56.202Z,27.85
2023-05-13T08:43:56.180Z,28.01
2023-05-13T08:44:56.162Z,28.02
2023-05-13T08:45:56.245Z,27.77
2023-05-13T08:46:56.153Z,27.70
2023-05-13T08:47:56.136Z,27.77
2023-05-13T08:48:56.149Z,24.93
2023-05-13T08:49:56.108Z,23.56
2023-05-13T08:50:56.089Z,23.69
2023-05-13T08:51:56.092Z,22.39
2023-05-13T08:52:56.068Z,21.82
2023-05-13T08:53:56.066Z,22.13
2023-05-13T08:54:56.037Z,22.54
2023-05-13T08:55:56.042Z,23.37
2023-05-13T08:56:56.058Z,23.51
2023-05-13T08:57:56.030Z,24.63
2023-05-13T08:58:55.991Z,24.69
2023-05-13T08:59:55.970Z,25.58
2023-05-13T09:00:56.009Z,26.19
2023-05-13T09:01:55.963Z,26.68
2023-05-13T09:02:56.021Z,27.35
2023-05-13T09:03:55.922Z,27.75
2023-05-13T09:04:55.995Z,27.40
2023-05-13T09:05:55.934Z,26.84
2023-05-13T09:06:55.967Z,25.53
2023-05-13T09:07:55.913Z,25.23
2023-05-13T09:08:55.859Z,26.00
2023-05-13T09:09:55.847Z,26.96
2023-05-13T09:10:55.853Z,27.85
2023-05-13T09:11:55.830Z,28.86
2023-05-13T09:12:55.815Z,26.55
2023-05-13T09:13:55.797Z,24.80
2023-05-13T09:14:55.799Z,23.87
2023-05-13T09:15:55.828Z,23.61
2023-05-13T09:16:55.770Z,23.69
2023-05-13T09:17:55.865Z,24.78
2023-05-13T09:18:55.824Z,25.40
2023-05-13T09:19:55.782Z,25.72
2023-05-13T09:20:55.750Z,26.44
2023-05-13T09:21:55.699Z,26.38
2023-05-13T09:22:55.681Z,27.26
2023-05-13T09:23:55.666Z,27.12
2023-05-13T09:24:55.679Z,27.32
2023-05-13T09:25:55.638Z,27.00
2023-05-13T09:26:55.637Z,26.03
2023-05-13T09:27:55.621Z,26.48
2023-05-13T09:28:55.605Z,26.77
2023-05-13T09:29:55.604Z,25.60
2023-05-13T09:30:55.634Z,25.60
2023-05-13T09:31:55.585Z,24.30
2023-05-13T09:32:55.566Z,24.43
2023-05-13T09:33:56.044Z,23.61
2023-05-13T09:34:55.578Z,24.39
2023-05-13T09:35:56.523Z,24.91
2023-05-13T09:36:55.742Z,25.26
2023-05-13T09:37:55.501Z,24.74
2023-05-13T09:38:55.502Z,24.48
2023-05-13T09:39:55.476Z,24.80
2023-05-13T09:40:55.584Z,24.65
2023-05-13T09:41:55.447Z,24.95
2023-05-13T09:42:55.448Z,23.71
2023-05-13T09:43:55.449Z,24.53
2023-05-13T09:44:55.423Z,25.55
2023-05-13T09:45:55.399Z,25.40
2023-05-13T09:46:55.456Z,25.77
2023-05-13T09:47:55.413Z,24.66
2023-05-13T09:48:57.075Z,25.33
2023-05-13T09:49:55.372Z,25.29
2023-05-13T09:50:55.370Z,25.06
2023-05-13T09:51:55.331Z,24.47
2023-05-13T09:52:55.353Z,24.55
2023-05-13T09:53:55.328Z,25.25
2023-05-13T09:54:55.295Z,25.72
2023-05-13T09:55:55.280Z,24.76
2023-05-13T09:56:55.270Z,25.25
2023-05-13T09:57:55.275Z,26.55
2023-05-13T09:58:55.271Z,27.70
2023-05-13T09:59:55.236Z,28.35
2023-05-13T10:00:55.336Z,27.77
2023-05-13T10:01:55.247Z,27.45
2023-05-13T10:02:55.255Z,27.32
2023-05-13T10:03:55.245Z,27.26
2023-05-13T10:04:55.170Z,26.73
2023-05-13T10:05:55.165Z,26.28
2023-05-13T10:06:55.171Z,25.78
2023-05-13T10:07:55.153Z,25.40
2023-05-13T10:08:55.143Z,25.07
2023-05-13T10:09:55.110Z,24.96
2023-05-13T10:10:55.098Z,25.17
2023-05-13T10:11:55.103Z,26.07
2023-05-13T10:12:55.088Z,26.95
2023-05-13T10:13:55.188Z,26.40
2023-05-13T10:14:55.050Z,25.99
2023-05-13T10:15:55.032Z,25.80
2023-05-13T10:16:55.180Z,25.63
2023-05-13T10:17:55.022Z,25.47
2023-05-13T10:18:55.142Z,25.36
2023-05-13T10:19:54.992Z,26.21
2023-05-13T10:20:54.978Z,26.25
2023-05-13T10:21:54.970Z,26.03
2023-05-13T10:22:54.953Z,25.88
2023-05-13T10:23:54.932Z,25.80
2023-05-13T10:24:54.931Z,25.58
2023-05-13T10:25:54.920Z,25.29
2023-05-13T10:26:54.907Z,25.08
2023-05-13T10:27:54.876Z,25.06
2023-05-13T10:28:54.865Z,24.99
2023-05-13T10:29:54.847Z,24.95
2023-05-13T10:30:54.998Z,24.93
2023-05-13T10:31:54.852Z,24.88
2023-05-13T10:32:54.855Z,24.93
2023-05-13T10:33:54.794Z,24.93
2023-05-13T10:34:54.801Z,24.96
2023-05-13T10:35:54.799Z,24.84
2023-05-13T10:36:54.790Z,24.74
2023-05-13T10:37:54.758Z,24.81
2023-05-13T10:38:54.755Z,24.70
2023-05-13T10:39:54.743Z,24.84
2023-05-13T10:40:54.731Z,25.03
2023-05-13T10:41:54.694Z,25.26
2023-05-13T10:42:54.684Z,25.80
2023-05-13T10:43:54.663Z,26.55
2023-05-13T10:44:54.676Z,26.25
2023-05-13T10:45:54.649Z,26.02
2023-05-13T10:46:54.625Z,25.72
2023-05-13T10:47:54.714Z,25.55
2023-05-13T10:48:54.615Z,25.35
2023-05-13T10:49:54.624Z,25.47
2023-05-13T10:50:54.571Z,25.69
2023-05-13T10:51:54.562Z,25.51
2023-05-13T10:52:54.549Z,25.41
2023-05-13T10:53:54.553Z,26.74
2023-05-13T10:54:54.523Z,27.05
2023-05-13T10:55:54.510Z,26.53
2023-05-13T10:56:54.528Z,26.40
2023-05-13T10:57:54.506Z,26.05
2023-05-13T10:58:54.597Z,26.70
2023-05-13T10:59:54.457Z,26.00
2023-05-13T11:00:54.470Z,25.75
2023-05-13T11:01:54.448Z,25.99
2023-05-13T11:02:54.520Z,25.22
2023-05-13T11:03:54.579Z,24.02
2023-05-13T11:04:54.406Z,24.50
2023-05-13T11:05:54.380Z,25.38
2023-05-13T11:06:54.371Z,25.43
2023-05-13T11:07:54.387Z,24.74
2023-05-13T11:08:55.974Z,24.08
2023-05-13T11:09:54.326Z,23.50
2023-05-13T11:10:54.318Z,23.21
2023-05-13T11:11:54.313Z,22.70
2023-05-13T11:12:54.335Z,22.91
2023-05-13T11:13:54.284Z,23.44
2023-05-13T11:14:54.265Z,25.03
2023-05-13T11:15:54.283Z,25.53
2023-05-13T11:16:54.279Z,26.43
2023-05-13T11:17:54.280Z,26.05
2023-05-13T11:18:54.270Z,26.15
2023-05-13T11:19:54.204Z,26.84
2023-05-13T11:20:54.192Z,26.95
2023-05-13T11:21:54.190Z,28.01
2023-05-13T11:22:54.178Z,27.78
2023-05-13T11:23:54.172Z,25.68
2023-05-13T11:24:54.153Z,25.73
2023-05-13T11:25:54.120Z,25.26
2023-05-13T11:26:54.128Z,25.43
2023-05-13T11:27:54.094Z,25.66
2023-05-13T11:28:54.113Z,25.70
2023-05-13T11:29:54.071Z,25.46
2023-05-13T11:30:54.430Z,25.11
2023-05-13T11:31:54.163Z,24.80
2023-05-13T11:32:54.115Z,24.53
2023-05-13T11:33:54.020Z,24.17
2023-05-13T11:34:54.002Z,23.93
2023-05-13T11:35:54.085Z,23.77
2023-05-13T11:36:54.000Z,23.80
2023-05-13T11:37:53.964Z,23.61
2023-05-13T11:38:53.955Z,23.56
2023-05-13T11:39:53.995Z,23.76
2023-05-13T11:40:53.949Z,23.65
2023-05-13T11:41:53.945Z,23.56
2023-05-13T11:42:53.905Z,23.54
2023-05-13T11:43:53.888Z,23.50
2023-05-13T11:44:53.910Z,23.68
2023-05-13T11:45:53.943Z,23.54
2023-05-13T11:46:53.944Z,23.51
2023-05-13T11:47:53.893Z,23.66
2023-05-13T11:48:53.821Z,23.69
2023-05-13T11:49:53.823Z,23.80
2023-05-13T11:50:53.795Z,23.96
2023-05-13T11:51:53.782Z,24.13
2023-05-13T11:52:53.771Z,23.98
2023-05-13T11:53:53.754Z,23.76
2023-05-13T11:54:53.849Z,23.44
2023-05-13T11:55:53.729Z,23.32
2023-05-13T11:56:53.734Z,23.10
2023-05-13T11:57:53.702Z,22.94
2023-05-13T11:58:53.708Z,22.90
2023-05-13T11:59:53.708Z,22.73
2023-05-13T12:00:53.720Z,22.68
2023-05-13T12:01:53.685Z,22.62
2023-05-13T12:02:53.914Z,22.18
2023-05-13T12:03:53.683Z,22.06
2023-05-13T12:04:53.715Z,21.99
2023-05-13T12:05:53.600Z,21.51
2023-05-13T12:06:53.592Z,21.45
2023-05-13T12:07:53.576Z,21.43
2023-05-13T12:08:53.577Z,20.75
2023-05-13T12:09:53.564Z,20.34
2023-05-13T12:10:53.577Z,20.41
2023-05-13T12:11:53.526Z,20.50
2023-05-13T12:12:53.510Z,20.47
2023-05-13T12:13:53.505Z,20.25
2023-05-13T12:14:53.486Z,20.02
2023-05-13T12:15:53.586Z,19.81
2023-05-13T12:16:53.476Z,19.71
2023-05-13T12:17:53.528Z,19.49
2023-05-13T12:18:53.488Z,19.34
2023-05-13T12:19:53.437Z,19.37
2023-05-13T12:20:53.412Z,19.31
2023-05-13T12:21:53.390Z,19.14
2023-05-13T12:22:53.440Z,18.93
2023-05-13T12:23:53.365Z,18.83
2023-05-13T12:24:53.352Z,18.73
2023-05-13T12:25:53.337Z,18.59
2023-05-13T12:26:53.322Z,18.35
2023-05-13T12:27:53.325Z,18.11
2023-05-13T12:28:53.296Z,18.01
2023-05-13T12:29:53.321Z,17.74
2023-05-13T12:30:53.413Z,17.51
2023-05-13T12:31:53.372Z,17.36
2023-05-13T12:32:53.367Z,17.15
2023-05-13T12:33:53.393Z,17.06
2023-05-13T12:34:53.218Z,17.04
2023-05-13T12:35:53.203Z,16.87
2023-05-13T12:36:53.373Z,16.78
2023-05-13T12:37:53.197Z,16.54
2023-05-13T12:38:53.159Z,16.46
2023-05-13T12:39:53.145Z,16.24
2023-05-13T12:40:53.138Z,16.26
2023-05-13T12:41:53.140Z,16.38
2023-05-13T12:42:53.106Z,16.35
2023-05-13T12:43:53.101Z,16.35
2023-05-13T12:44:53.080Z,16.35
2023-05-13T12:45:53.084Z,16.28
2023-05-13T12:46:53.207Z,16.16
2023-05-13T12:47:53.092Z,16.02
2023-05-13T12:48:53.048Z,15.90
2023-05-13T12:49:53.028Z,15.73
2023-05-13T12:50:53.027Z,15.65
2023-05-13T12:51:52.985Z,15.59